Time;durP1;ratioP1;P1;durP2;ratioP2;P2;SDS_P1;SDS_P2;PMS_P1;PMS_P2;Temp;Humidity;BMP_temperature;BMP_pressure;BME280_temperature;BME280_humidity;BME280_pressure;Samples;Min_cycle;Max_cycle;Signal;HPM_P1;HPM_P2
2024/01/01 00:02:24;;;;;;;26.67;11.38;;;;;;;;;;5050646;28;20064;-65
2024/01/01 00:04:50;;;;;;;26.67;11.63;;;;;;;;;;5050573;28;20129;-65
2024/01/01 00:07:19;;;;;;;11.65;5.43;;;;;;;;;;5030704;28;20052;-65
2024/01/01 00:09:48;;;;;;;34.47;13.77;;;;;;;;;;5060734;28;20065;-65
2024/01/01 00:12:15;;;;;;;30.75;14.52;;;;;;;;;;5051929;28;20102;-65
2024/01/01 00:14:41;;;;;;;31.75;13.15;;;;;;;;;;5043251;28;20057;-65
2024/01/01 00:17:08;;;;;;;35.47;13.90;;;;;;;;;;5018922;28;20056;-65
2024/01/01 00:19:35;;;;;;;39.65;14.98;;;;;;;;;;5039010;28;20052;-65
2024/01/01 00:22:02;;;;;;;27.35;10.63;;;;;;;;;;5031865;28;20049;-65
2024/01/01 00:24:30;;;;;;;31.98;9.25;;;;;;;;;;5042834;28;20049;-64
2024/01/01 00:26:57;;;;;;;23.08;10.77;;;;;;;;;;5015977;28;20119;-66
2024/01/01 00:29:25;;;;;;;20.67;9.82;;;;;;;;;;5069003;28;20139;-62
2024/01/01 00:31:51;;;;;;;18.80;6.72;;;;;;;;;;5035226;28;20048;-63
2024/01/01 00:34:18;;;;;;;19.23;7.60;;;;;;;;;;5060609;28;20102;-61
2024/01/01 00:36:45;;;;;;;23.02;8.48;;;;;;;;;;5028564;28;20057;-62
2024/01/01 00:39:12;;;;;;;19.85;6.68;;;;;;;;;;5032571;28;20060;-62
2024/01/01 00:41:40;;;;;;;14.40;5.95;;;;;;;;;;5038772;28;20122;-66
2024/01/01 00:44:07;;;;;;;14.32;6.22;;;;;;;;;;5038998;28;20123;-63
2024/01/01 00:46:33;;;;;;;13.43;5.72;;;;;;;;;;5030459;28;20112;-63
2024/01/01 00:49:00;;;;;;;10.20;4.65;;;;;;;;;;5038800;28;20086;-64
2024/01/01 00:51:27;;;;;;;15.23;5.75;;;;;;;;;;5037268;28;20057;-63
2024/01/01 00:53:53;;;;;;;12.23;5.20;;;;;;;;;;5032506;28;20064;-63
2024/01/01 00:56:20;;;;;;;13.30;5.07;;;;;;;;;;5052968;28;20102;-63
2024/01/01 00:58:48;;;;;;;11.85;3.60;;;;;;;;;;5050595;28;20116;-63
2024/01/01 01:01:15;;;;;;;8.25;3.58;;;;;;;;;;5049245;28;20053;-62
2024/01/01 01:03:42;;;;;;;9.63;4.00;;;;;;;;;;5036810;28;20055;-63
2024/01/01 01:06:09;;;;;;;7.78;3.63;;;;;;;;;;5049322;28;20061;-62
2024/01/01 01:08:36;;;;;;;9.57;3.45;;;;;;;;;;5037444;28;20126;-63
2024/01/01 01:11:02;;;;;;;5.22;2.35;;;;;;;;;;5029286;28;20055;-64
2024/01/01 01:13:29;;;;;;;10.95;2.72;;;;;;;;;;5021548;28;20107;-62
2024/01/01 01:15:57;;;;;;;5.38;2.65;;;;;;;;;;5020679;28;20052;-63
2024/01/01 01:18:24;;;;;;;4.75;1.70;;;;;;;;;;5029603;28;20064;-62
2024/01/01 01:20:50;;;;;;;7.65;2.65;;;;;;;;;;5014324;28;20156;-62
2024/01/01 01:23:17;;;;;;;7.05;1.98;;;;;;;;;;5027591;28;20192;-63
2024/01/01 01:25:44;;;;;;;6.57;2.20;;;;;;;;;;5023118;28;20175;-63
2024/01/01 01:28:11;;;;;;;5.70;1.65;;;;;;;;;;4996875;28;20062;-64
2024/01/01 01:30:37;;;;;;;8.00;1.67;;;;;;;;;;5023743;28;20161;-64
2024/01/01 01:33:06;;;;;;;4.15;1.10;;;;;;;;;;5023396;28;20041;-63
2024/01/01 01:35:33;;;;;;;;;;;;;;;;;;5025452;28;20075;-63
2024/01/01 01:37:59;;;;;;;6.07;1.27;;;;;;;;;;5033124;28;20039;-65
2024/01/01 01:40:26;;;;;;;3.88;1.48;;;;;;;;;;5030106;28;20044;-64
2024/01/01 01:42:53;;;;;;;3.75;1.20;;;;;;;;;;5023765;28;20073;-64
2024/01/01 01:45:19;;;;;;;5.60;1.23;;;;;;;;;;5046342;28;20138;-64
2024/01/01 01:47:50;;;;;;;2.08;0.82;;;;;;;;;;5009391;28;20055;-64
2024/01/01 01:50:18;;;;;;;5.57;1.38;;;;;;;;;;5019191;28;20056;-63
2024/01/01 01:52:45;;;;;;;5.35;1.75;;;;;;;;;;5026680;28;20137;-63
2024/01/01 01:55:14;;;;;;;24.77;6.97;;;;;;;;;;5032412;28;20069;-63
2024/01/01 01:57:53;;;;;;;4.10;1.70;;;;;;;;;;5030354;28;20060;-63
2024/01/01 02:00:21;;;;;;;5.72;1.23;;;;;;;;;;5037979;28;20060;-63
2024/01/01 02:02:48;;;;;;;4.78;1.08;;;;;;;;;;5036566;28;20251;-63
2024/01/01 02:05:16;;;;;;;2.83;1.10;;;;;;;;;;5038712;28;20046;-64
2024/01/01 02:07:46;;;;;;;5.43;1.10;;;;;;;;;;5007526;28;20061;-62
2024/01/01 02:10:13;;;;;;;2.75;1.05;;;;;;;;;;5021414;28;20288;-63
2024/01/01 02:12:39;;;;;;;3.38;0.90;;;;;;;;;;5025807;28;20041;-63
2024/01/01 02:15:07;;;;;;;2.80;0.90;;;;;;;;;;5024485;28;20052;-63
2024/01/01 02:17:33;;;;;;;1.67;0.90;;;;;;;;;;5010758;28;20076;-63
2024/01/01 02:20:00;;;;;;;5.70;1.00;;;;;;;;;;5036723;28;20136;-63
2024/01/01 02:22:36;;;;;;;4.25;1.55;;;;;;;;;;5025872;28;20068;-64
2024/01/01 02:25:05;;;;;;;2.30;0.63;;;;;;;;;;5037119;28;20128;-63
2024/01/01 02:27:32;;;;;;;4.07;0.95;;;;;;;;;;5023298;28;20049;-63
2024/01/01 02:29:59;;;;;;;3.10;0.90;;;;;;;;;;5033918;28;20049;-63
2024/01/01 02:32:25;;;;;;;5.05;1.30;;;;;;;;;;5042057;28;20057;-63
2024/01/01 02:34:53;;;;;;;2.90;0.70;;;;;;;;;;5021398;28;20057;-63
2024/01/01 02:37:19;;;;;;;5.90;1.10;;;;;;;;;;5025351;28;20118;-63
2024/01/01 02:39:46;;;;;;;5.72;1.45;;;;;;;;;;5035316;28;20117;-64
2024/01/01 02:42:14;;;;;;;0.90;0.50;;;;;;;;;;5041206;28;20066;-63
2024/01/01 02:44:41;;;;;;;6.40;1.25;;;;;;;;;;5033853;28;20167;-64
2024/01/01 02:47:07;;;;;;;5.32;0.90;;;;;;;;;;5030830;28;20071;-64
2024/01/01 02:49:34;;;;;;;3.80;0.98;;;;;;;;;;5038254;28;20056;-64
2024/01/01 02:52:01;;;;;;;4.88;1.08;;;;;;;;;;5030499;28;20076;-65
2024/01/01 02:54:27;;;;;;;6.35;1.23;;;;;;;;;;5026865;28;20052;-63
2024/01/01 02:56:54;;;;;;;6.45;1.00;;;;;;;;;;5001785;28;20057;-63
2024/01/01 02:59:22;;;;;;;3.47;0.90;;;;;;;;;;5026448;28;20057;-64
2024/01/01 03:01:49;;;;;;;2.38;0.75;;;;;;;;;;5042524;28;20079;-64
2024/01/01 03:04:16;;;;;;;2.30;0.47;;;;;;;;;;5026319;28;20049;-63
2024/01/01 03:06:42;;;;;;;4.00;0.98;;;;;;;;;;5041972;28;20126;-64
2024/01/01 03:09:09;;;;;;;4.10;0.90;;;;;;;;;;5041188;28;20080;-63
2024/01/01 03:11:36;;;;;;;3.00;0.77;;;;;;;;;;5038471;28;20057;-64
2024/01/01 03:14:03;;;;;;;6.47;1.27;;;;;;;;;;5034194;28;20048;-63
2024/01/01 03:16:31;;;;;;;5.63;0.65;;;;;;;;;;5044115;28;20064;-63
2024/01/01 03:18:57;;;;;;;3.03;0.52;;;;;;;;;;5042420;28;20045;-63
2024/01/01 03:21:24;;;;;;;2.67;0.80;;;;;;;;;;5039331;28;20053;-63
2024/01/01 03:23:51;;;;;;;1.50;0.47;;;;;;;;;;5049731;28;20049;-63
2024/01/01 03:26:17;;;;;;;1.35;0.47;;;;;;;;;;5043350;28;20057;-63
2024/01/01 03:28:44;;;;;;;4.65;1.05;;;;;;;;;;5048717;28;20049;-63
2024/01/01 03:31:11;;;;;;;7.50;1.17;;;;;;;;;;5037202;28;20053;-63
2024/01/01 03:33:40;;;;;;;5.07;0.88;;;;;;;;;;5050447;28;20128;-63
2024/01/01 03:36:07;;;;;;;2.97;0.75;;;;;;;;;;5055345;28;20063;-63
2024/01/01 03:38:34;;;;;;;3.00;1.10;;;;;;;;;;5030598;28;20056;-63
2024/01/01 03:41:01;;;;;;;10.25;0.85;;;;;;;;;;5041790;28;20057;-63
2024/01/01 03:43:27;;;;;;;8.38;1.02;;;;;;;;;;5028232;28;20136;-63
2024/01/01 03:45:54;;;;;;;3.58;0.88;;;;;;;;;;5036315;28;20512;-63
2024/01/01 03:48:20;;;;;;;7.53;0.70;;;;;;;;;;5056087;28;20148;-63
2024/01/01 03:50:49;;;;;;;2.50;0.57;;;;;;;;;;5062094;28;20060;-64
2024/01/01 03:53:15;;;;;;;7.57;1.30;;;;;;;;;;5038945;28;20089;-64
2024/01/01 03:55:45;;;;;;;7.25;1.15;;;;;;;;;;5040251;28;20045;-63
2024/01/01 03:58:11;;;;;;;4.65;0.85;;;;;;;;;;5045958;28;20136;-63
2024/01/01 04:00:38;;;;;;;3.60;0.73;;;;;;;;;;5049664;28;20052;-63
2024/01/01 04:03:05;;;;;;;9.95;1.00;;;;;;;;;;5053983;28;20053;-63
2024/01/01 04:05:32;;;;;;;11.23;1.70;;;;;;;;;;5041104;28;20045;-64
2024/01/01 04:08:00;;;;;;;1.05;0.40;;;;;;;;;;5053664;28;20060;-64
2024/01/01 04:10:27;;;;;;;6.78;1.35;;;;;;;;;;5058427;28;20364;-63
2024/01/01 04:12:53;;;;;;;4.68;0.50;;;;;;;;;;5044430;28;20068;-64
2024/01/01 04:15:20;;;;;;;4.18;0.95;;;;;;;;;;5053562;28;20053;-63
2024/01/01 04:17:47;;;;;;;5.13;0.95;;;;;;;;;;5037764;28;20049;-63
2024/01/01 04:20:14;;;;;;;4.40;1.33;;;;;;;;;;5043219;28;20136;-64
2024/01/01 04:22:41;;;;;;;6.22;1.20;;;;;;;;;;5042141;28;20431;-63
2024/01/01 04:25:10;;;;;;;9.38;1.02;;;;;;;;;;5039205;28;20067;-63
2024/01/01 04:27:36;;;;;;;3.55;0.65;;;;;;;;;;5041463;28;20053;-63
2024/01/01 04:30:04;;;;;;;8.40;1.02;;;;;;;;;;5041731;28;20061;-63
2024/01/01 04:32:31;;;;;;;3.88;0.80;;;;;;;;;;5043544;28;20056;-64
2024/01/01 04:34:57;;;;;;;3.67;0.98;;;;;;;;;;5047390;28;20103;-64
2024/01/01 04:37:24;;;;;;;2.95;0.93;;;;;;;;;;5043121;28;20153;-64
2024/01/01 04:39:51;;;;;;;6.15;1.15;;;;;;;;;;5034533;28;20080;-63
2024/01/01 04:42:19;;;;;;;5.78;0.77;;;;;;;;;;5043001;28;20088;-65
2024/01/01 04:44:46;;;;;;;3.80;0.60;;;;;;;;;;5025977;28;20106;-63
2024/01/01 04:47:13;;;;;;;4.18;0.80;;;;;;;;;;5027282;28;20041;-65
2024/01/01 04:49:44;;;;;;;2.15;0.95;;;;;;;;;;5021564;28;20144;-63
2024/01/01 04:52:11;;;;;;;6.55;1.65;;;;;;;;;;5043020;28;20045;-63
2024/01/01 04:54:38;;;;;;;5.65;0.95;;;;;;;;;;5019789;28;20065;-63
2024/01/01 04:57:05;;;;;;;2.35;0.95;;;;;;;;;;5025126;28;20067;-63
2024/01/01 04:59:33;;;;;;;4.90;0.75;;;;;;;;;;5024849;28;20049;-64
2024/01/01 05:02:00;;;;;;;7.32;1.20;;;;;;;;;;5046302;28;20077;-63
2024/01/01 05:04:26;;;;;;;3.45;0.82;;;;;;;;;;5034207;28;20135;-64
2024/01/01 05:06:53;;;;;;;1.10;0.30;;;;;;;;;;5036180;28;20111;-63
2024/01/01 05:09:20;;;;;;;5.50;1.13;;;;;;;;;;5025752;28;20148;-64
2024/01/01 05:11:46;;;;;;;2.67;0.73;;;;;;;;;;5019412;28;20053;-64
2024/01/01 05:14:13;;;;;;;3.40;0.70;;;;;;;;;;5016365;28;20061;-64
2024/01/01 05:16:46;;;;;;;7.00;0.98;;;;;;;;;;5036438;28;20041;-63
2024/01/01 05:19:13;;;;;;;7.55;1.50;;;;;;;;;;5014415;28;20057;-63
2024/01/01 05:21:40;;;;;;;7.32;0.75;;;;;;;;;;5015650;28;20058;-63
2024/01/01 05:24:07;;;;;;;4.07;0.90;;;;;;;;;;5016134;28;20061;-63
2024/01/01 05:26:34;;;;;;;3.17;0.65;;;;;;;;;;5008425;28;20141;-63
2024/01/01 05:29:00;;;;;;;4.68;0.98;;;;;;;;;;5008582;28;20137;-63
2024/01/01 05:31:27;;;;;;;5.50;1.42;;;;;;;;;;5014461;28;20057;-63
2024/01/01 05:33:55;;;;;;;2.38;0.95;;;;;;;;;;5018533;28;20075;-63
2024/01/01 05:36:22;;;;;;;3.35;0.50;;;;;;;;;;5024015;28;20128;-63
2024/01/01 05:38:48;;;;;;;1.13;0.35;;;;;;;;;;5030020;28;20132;-63
2024/01/01 05:41:15;;;;;;;2.22;0.68;;;;;;;;;;5023112;28;20061;-63
2024/01/01 05:43:42;;;;;;;7.57;0.80;;;;;;;;;;5016781;28;20053;-64
2024/01/01 05:46:08;;;;;;;7.93;1.13;;;;;;;;;;5025497;28;20049;-63
2024/01/01 05:48:35;;;;;;;2.97;0.60;;;;;;;;;;5044123;28;20156;-64
2024/01/01 05:51:03;;;;;;;9.02;1.30;;;;;;;;;;5019951;28;20061;-64
2024/01/01 05:53:30;;;;;;;4.28;0.93;;;;;;;;;;5017149;28;20137;-64
2024/01/01 05:55:57;;;;;;;10.38;1.20;;;;;;;;;;5019818;28;20077;-64
2024/01/01 05:58:24;;;;;;;5.65;1.30;;;;;;;;;;5035207;28;20061;-64
2024/01/01 06:00:50;;;;;;;5.65;1.10;;;;;;;;;;5034552;28;20057;-63
2024/01/01 06:03:17;;;;;;;3.45;0.85;;;;;;;;;;5026207;28;20132;-65
2024/01/01 06:05:44;;;;;;;5.35;1.60;;;;;;;;;;5056212;28;20057;-64
2024/01/01 06:08:12;;;;;;;10.00;1.35;;;;;;;;;;5051841;28;20067;-64
2024/01/01 06:10:39;;;;;;;4.18;1.10;;;;;;;;;;5053858;28;20143;-63
2024/01/01 06:13:05;;;;;;;6.35;0.60;;;;;;;;;;5040744;28;20045;-63
2024/01/01 06:15:32;;;;;;;2.20;0.55;;;;;;;;;;5035867;28;20045;-63
2024/01/01 06:17:59;;;;;;;14.20;1.20;;;;;;;;;;5037450;28;20056;-63
2024/01/01 06:20:26;;;;;;;3.10;0.77;;;;;;;;;;5057290;28;20117;-63
2024/01/01 06:22:52;;;;;;;4.80;0.85;;;;;;;;;;5040680;28;20048;-64
2024/01/01 06:25:20;;;;;;;6.47;1.35;;;;;;;;;;5035422;28;20065;-63
2024/01/01 06:27:47;;;;;;;3.00;0.50;;;;;;;;;;5048099;28;20132;-63
2024/01/01 06:30:14;;;;;;;8.05;1.10;;;;;;;;;;5041195;28;20052;-63
2024/01/01 06:32:41;;;;;;;8.82;1.25;;;;;;;;;;5039514;28;20057;-63
2024/01/01 06:35:08;;;;;;;13.70;1.33;;;;;;;;;;5037161;28;20095;-62
2024/01/01 06:37:35;;;;;;;3.85;1.25;;;;;;;;;;5021794;28;20057;-63
2024/01/01 06:40:03;;;;;;;6.10;1.50;;;;;;;;;;5028053;28;20967;-64
2024/01/01 06:42:31;;;;;;;6.03;1.20;;;;;;;;;;5039071;28;20140;-64
2024/01/01 06:45:01;;;;;;;3.97;0.93;;;;;;;;;;5036686;28;20044;-64
2024/01/01 06:47:27;;;;;;;6.60;0.90;;;;;;;;;;5049320;28;20488;-64
2024/01/01 06:49:54;;;;;;;9.57;1.05;;;;;;;;;;5032837;28;20364;-64
2024/01/01 06:52:21;;;;;;;8.13;1.67;;;;;;;;;;5047231;28;20057;-64
2024/01/01 06:54:48;;;;;;;3.47;0.88;;;;;;;;;;5038123;28;20099;-63
2024/01/01 06:57:15;;;;;;;6.25;0.80;;;;;;;;;;5039713;28;20114;-63
2024/01/01 06:59:43;;;;;;;3.05;0.85;;;;;;;;;;5036144;28;20093;-64
2024/01/01 07:02:09;;;;;;;4.90;1.10;;;;;;;;;;5046441;28;20052;-63
2024/01/01 07:04:36;;;;;;;3.28;0.73;;;;;;;;;;5024566;28;20053;-63
2024/01/01 07:07:03;;;;;;;8.20;1.00;;;;;;;;;;5054222;28;20080;-64
2024/01/01 07:09:29;;;;;;;4.63;0.98;;;;;;;;;;5039433;28;20110;-63
2024/01/01 07:11:56;;;;;;;4.82;0.88;;;;;;;;;;5034894;28;20141;-63
2024/01/01 07:14:23;;;;;;;4.65;1.40;;;;;;;;;;5035677;28;20143;-64
2024/01/01 07:16:53;;;;;;;7.18;1.30;;;;;;;;;;5040555;28;20053;-63
2024/01/01 07:19:19;;;;;;;2.78;0.95;;;;;;;;;;5040142;28;20118;-63
2024/01/01 07:21:47;;;;;;;3.28;1.40;;;;;;;;;;5049949;28;20053;-63
2024/01/01 07:24:14;;;;;;;5.45;1.10;;;;;;;;;;5053392;28;20088;-63
2024/01/01 07:26:41;;;;;;;9.82;1.05;;;;;;;;;;5044074;28;20049;-63
2024/01/01 07:29:08;;;;;;;2.95;1.02;;;;;;;;;;5043668;28;20044;-64
2024/01/01 07:31:35;;;;;;;7.18;1.08;;;;;;;;;;5039621;28;20056;-63
2024/01/01 07:34:04;;;;;;;3.33;0.80;;;;;;;;;;5035879;28;20045;-63
2024/01/01 07:36:30;;;;;;;10.23;1.77;;;;;;;;;;5044336;28;20080;-62
2024/01/01 07:38:57;;;;;;;5.38;1.20;;;;;;;;;;5045526;28;20080;-63
2024/01/01 07:41:23;;;;;;;6.40;1.05;;;;;;;;;;5045776;28;20076;-63
2024/01/01 07:43:50;;;;;;;7.05;1.10;;;;;;;;;;5033206;28;20149;-63
2024/01/01 07:46:17;;;;;;;7.00;1.33;;;;;;;;;;5035427;28;20061;-64
2024/01/01 07:48:44;;;;;;;7.00;1.17;;;;;;;;;;5041961;28;20109;-63
2024/01/01 07:51:12;;;;;;;7.30;2.03;;;;;;;;;;5044297;28;20132;-64
2024/01/01 07:53:39;;;;;;;6.20;1.95;;;;;;;;;;5042740;28;20053;-64
2024/01/01 07:56:06;;;;;;;7.28;1.27;;;;;;;;;;5044577;28;20048;-63
2024/01/01 07:58:33;;;;;;;5.70;1.13;;;;;;;;;;5043106;28;20161;-63
2024/01/01 08:01:00;;;;;;;3.92;1.02;;;;;;;;;;5042952;28;20060;-64
2024/01/01 08:03:27;;;;;;;6.22;1.10;;;;;;;;;;5035995;28;20056;-64
2024/01/01 08:05:53;;;;;;;5.93;1.30;;;;;;;;;;5037861;28;20102;-64
2024/01/01 08:08:22;;;;;;;7.20;1.33;;;;;;;;;;5043253;28;20053;-64
2024/01/01 08:10:49;;;;;;;5.20;1.25;;;;;;;;;;5041993;28;20075;-64
2024/01/01 08:13:16;;;;;;;6.00;1.42;;;;;;;;;;5041133;28;20049;-64
2024/01/01 08:15:42;;;;;;;6.93;1.35;;;;;;;;;;5054104;28;20175;-65
2024/01/01 08:18:09;;;;;;;7.28;1.25;;;;;;;;;;5058908;28;20055;-64
2024/01/01 08:20:36;;;;;;;5.05;1.20;;;;;;;;;;5042873;28;20114;-64
2024/01/01 08:23:03;;;;;;;6.90;1.23;;;;;;;;;;5029840;28;20061;-64
2024/01/01 08:25:31;;;;;;;2.38;1.20;;;;;;;;;;5038805;28;20045;-64
2024/01/01 08:27:58;;;;;;;7.13;1.50;;;;;;;;;;5040315;28;20051;-63
2024/01/01 08:30:25;;;;;;;7.60;1.40;;;;;;;;;;5042589;28;20130;-64
2024/01/01 08:32:52;;;;;;;7.03;1.63;;;;;;;;;;5058678;28;20060;-63
2024/01/01 08:35:19;;;;;;;11.45;1.50;;;;;;;;;;5019126;28;20198;-64
2024/01/01 08:37:47;;;;;;;8.13;1.33;;;;;;;;;;5035578;28;20053;-64
2024/01/01 08:40:19;;;;;;;4.93;1.30;;;;;;;;;;5056172;28;20048;-63
2024/01/01 08:42:48;;;;;;;14.07;1.80;;;;;;;;;;5041550;28;20053;-64
2024/01/01 08:45:16;;;;;;;7.85;1.50;;;;;;;;;;5051691;28;20142;-64
2024/01/01 08:47:46;;;;;;;5.97;1.58;;;;;;;;;;5037288;28;20048;-64
2024/01/01 08:50:14;;;;;;;7.85;1.58;;;;;;;;;;5040567;28;20102;-62
2024/01/01 08:52:42;;;;;;;7.90;1.20;;;;;;;;;;5042784;28;20079;-63
2024/01/01 08:55:09;;;;;;;4.88;1.15;;;;;;;;;;5037028;28;20052;-64
2024/01/01 08:57:36;;;;;;;8.38;1.50;;;;;;;;;;5056416;28;20060;-64
2024/01/01 09:00:09;;;;;;;5.38;0.90;;;;;;;;;;5039942;28;21323;-64
2024/01/01 09:02:35;;;;;;;5.57;1.50;;;;;;;;;;5042767;28;20061;-65
2024/01/01 09:05:02;;;;;;;7.20;1.05;;;;;;;;;;5022654;28;20131;-64
2024/01/01 09:07:33;;;;;;;9.70;1.40;;;;;;;;;;5045868;28;20045;-64
2024/01/01 09:10:01;;;;;;;2.42;0.90;;;;;;;;;;5056593;28;20053;-64
2024/01/01 09:12:28;;;;;;;4.35;0.88;;;;;;;;;;5038401;28;20053;-63
2024/01/01 09:14:55;;;;;;;8.55;1.30;;;;;;;;;;5035697;28;20110;-62
2024/01/01 09:17:23;;;;;;;5.90;1.10;;;;;;;;;;5059656;28;20072;-62
2024/01/01 09:19:52;;;;;;;5.80;1.30;;;;;;;;;;5040182;28;20084;-63
2024/01/01 09:22:19;;;;;;;3.45;1.02;;;;;;;;;;5044049;28;20076;-62
2024/01/01 09:24:46;;;;;;;10.60;1.80;;;;;;;;;;5030494;28;20083;-62
2024/01/01 09:27:13;;;;;;;2.20;0.73;;;;;;;;;;5041673;28;20049;-62
2024/01/01 09:29:39;;;;;;;9.02;1.00;;;;;;;;;;5037176;28;20056;-65
2024/01/01 09:32:07;;;;;;;3.97;0.85;;;;;;;;;;5034667;28;20049;-62
2024/01/01 09:34:35;;;;;;;15.73;1.63;;;;;;;;;;5009021;28;20057;-63
2024/01/01 09:37:01;;;;;;;9.02;1.20;;;;;;;;;;5043074;28;20060;-64
2024/01/01 09:39:28;;;;;;;6.57;1.38;;;;;;;;;;5034706;28;20057;-62
2024/01/01 09:41:55;;;;;;;6.57;0.93;;;;;;;;;;5015149;28;20064;-63
2024/01/01 09:44:22;;;;;;;4.35;1.00;;;;;;;;;;5035357;28;20309;-63
2024/01/01 09:46:48;;;;;;;9.73;1.25;;;;;;;;;;5046568;28;20081;-64
2024/01/01 09:49:15;;;;;;;2.88;0.77;;;;;;;;;;5028175;28;20145;-63
2024/01/01 09:51:47;;;;;;;7.63;1.27;;;;;;;;;;5042439;28;20041;-64
2024/01/01 09:54:13;;;;;;;5.55;1.40;;;;;;;;;;5020011;28;20146;-63
2024/01/01 09:56:42;;;;;;;5.30;1.08;;;;;;;;;;5025079;28;20160;-63
2024/01/01 09:59:10;;;;;;;4.90;1.00;;;;;;;;;;5040640;28;20063;-63
2024/01/01 10:01:38;;;;;;;3.17;0.98;;;;;;;;;;5030052;28;20063;-65
2024/01/01 10:04:09;;;;;;;5.60;1.67;;;;;;;;;;5038015;28;20162;-66
2024/01/01 10:06:36;;;;;;;2.40;1.00;;;;;;;;;;5025095;28;20056;-65
2024/01/01 10:09:08;;;;;;;4.22;0.93;;;;;;;;;;5024755;28;20057;-62
2024/01/01 10:11:38;;;;;;;3.28;0.82;;;;;;;;;;5038900;28;20052;-63
2024/01/01 10:14:06;;;;;;;4.13;0.70;;;;;;;;;;5036847;28;20057;-63
2024/01/01 10:16:33;;;;;;;6.40;1.00;;;;;;;;;;5022362;28;20061;-63
2024/01/01 10:19:01;;;;;;;6.30;1.27;;;;;;;;;;5023886;28;20115;-63
2024/01/01 10:21:30;;;;;;;5.53;1.02;;;;;;;;;;5038465;28;20339;-63
2024/01/01 10:23:58;;;;;;;3.70;1.00;;;;;;;;;;5030404;28;20095;-67
2024/01/01 10:26:26;;;;;;;2.33;0.90;;;;;;;;;;5023645;28;20052;-65
2024/01/01 10:28:53;;;;;;;3.13;1.10;;;;;;;;;;5044147;28;20079;-65
2024/01/01 10:31:19;;;;;;;3.30;0.82;;;;;;;;;;5041195;28;20091;-66
2024/01/01 10:33:49;;;;;;;8.77;1.17;;;;;;;;;;5030535;28;20071;-65
2024/01/01 10:36:18;;;;;;;7.45;1.15;;;;;;;;;;5035954;28;20060;-65
2024/01/01 10:38:45;;;;;;;2.08;0.77;;;;;;;;;;5039363;28;20065;-65
2024/01/01 10:41:12;;;;;;;1.65;0.65;;;;;;;;;;5024332;28;20185;-65
2024/01/01 10:43:43;;;;;;;4.43;0.98;;;;;;;;;;5033433;28;21635;-66
2024/01/01 10:46:13;;;;;;;3.80;1.05;;;;;;;;;;5043011;28;20213;-63
2024/01/01 10:48:42;;;;;;;16.48;4.38;;;;;;;;;;5030480;28;20084;-62
2024/01/01 10:51:25;;;;;;;10.40;1.75;;;;;;;;;;5050508;28;20112;-64
2024/01/01 10:54:32;;;;;;;7.20;1.35;;;;;;;;;;5010094;28;20056;-63
2024/01/01 10:57:15;;;;;;;3.95;0.70;;;;;;;;;;5016195;28;20060;-63
2024/01/01 10:59:54;;;;;;;14.18;1.23;;;;;;;;;;5032484;28;20063;-64
2024/01/01 11:02:23;;;;;;;6.35;0.90;;;;;;;;;;5030675;28;20049;-63
2024/01/01 11:05:06;;;;;;;2.80;0.95;;;;;;;;;;5024802;28;20056;-64
2024/01/01 11:07:57;;;;;;;4.03;0.88;;;;;;;;;;5017647;28;20049;-63
2024/01/01 11:10:34;;;;;;;4.47;1.10;;;;;;;;;;5028618;28;20088;-63
2024/01/01 11:13:01;;;;;;;3.53;0.93;;;;;;;;;;5026996;28;20065;-62
2024/01/01 11:15:46;;;;;;;6.53;1.17;;;;;;;;;;5011854;28;20041;-64
2024/01/01 11:18:15;;;;;;;3.17;0.73;;;;;;;;;;5016843;28;20127;-62
2024/01/01 11:20:52;;;;;;;2.50;1.00;;;;;;;;;;5016833;28;20081;-63
2024/01/01 11:23:41;;;;;;;6.10;1.00;;;;;;;;;;5005591;28;20057;-64
2024/01/01 11:26:34;;;;;;;5.72;0.73;;;;;;;;;;5016907;28;20065;-63
2024/01/01 11:29:25;;;;;;;5.38;0.90;;;;;;;;;;5011998;28;20054;-62
2024/01/01 11:32:00;;;;;;;12.65;3.00;;;;;;;;;;5007014;28;20117;-63
2024/01/01 11:34:27;;;;;;;5.07;1.30;;;;;;;;;;5010674;28;20137;-63
2024/01/01 11:36:56;;;;;;;2.67;0.85;;;;;;;;;;5023047;28;20049;-63
2024/01/01 11:39:24;;;;;;;5.57;0.90;;;;;;;;;;5029179;28;20053;-62
2024/01/01 11:41:52;;;;;;;3.10;0.82;;;;;;;;;;5022543;28;20084;-63
2024/01/01 11:44:23;;;;;;;3.47;1.02;;;;;;;;;;5011286;28;20061;-63
2024/01/01 11:46:53;;;;;;;1.58;0.60;;;;;;;;;;5028465;28;20052;-63
2024/01/01 11:49:21;;;;;;;4.50;1.63;;;;;;;;;;5019391;28;20139;-62
2024/01/01 11:51:50;;;;;;;7.13;1.20;;;;;;;;;;5030101;28;20045;-63
2024/01/01 11:54:17;;;;;;;2.70;0.82;;;;;;;;;;5007187;28;20058;-62
2024/01/01 11:56:46;;;;;;;7.18;0.98;;;;;;;;;;5017949;28;20053;-62
2024/01/01 11:59:13;;;;;;;4.43;1.00;;;;;;;;;;5005051;28;20057;-62
2024/01/01 12:01:44;;;;;;;6.10;1.73;;;;;;;;;;5022078;28;20085;-63
2024/01/01 12:04:12;;;;;;;5.68;0.98;;;;;;;;;;5023953;28;20057;-63
2024/01/01 12:06:41;;;;;;;7.95;1.30;;;;;;;;;;5036264;28;20080;-63
2024/01/01 12:09:11;;;;;;;;;;;;;;;;;;5023243;28;20120;-63
2024/01/01 12:11:43;;;;;;;6.22;0.88;;;;;;;;;;5038259;28;19935;-65
2024/01/01 12:14:10;;;;;;;8.05;1.20;;;;;;;;;;5035986;28;20052;-63
2024/01/01 12:16:37;;;;;;;5.97;1.20;;;;;;;;;;5021495;28;20145;-63
2024/01/01 12:19:05;;;;;;;7.78;1.25;;;;;;;;;;5033104;28;20136;-63
2024/01/01 12:21:44;;;;;;;7.25;1.85;;;;;;;;;;5011209;28;20073;-63
2024/01/01 12:24:14;;;;;;;13.63;2.03;;;;;;;;;;5002412;28;20064;-63
2024/01/01 12:26:41;;;;;;;6.43;1.08;;;;;;;;;;5037525;28;20061;-63
2024/01/01 12:29:12;;;;;;;3.85;1.17;;;;;;;;;;5030955;28;20065;-64
2024/01/01 12:31:45;;;;;;;17.23;2.53;;;;;;;;;;5033275;28;20040;-64
2024/01/01 12:34:16;;;;;;;3.47;0.90;;;;;;;;;;5020837;28;20135;-63
2024/01/01 12:36:47;;;;;;;9.93;1.48;;;;;;;;;;5056101;28;20037;-63
2024/01/01 12:39:15;;;;;;;5.88;0.82;;;;;;;;;;5060525;28;20049;-63
2024/01/01 12:41:45;;;;;;;2.85;0.80;;;;;;;;;;5042875;28;20045;-63
2024/01/01 12:44:12;;;;;;;5.68;1.30;;;;;;;;;;5026199;28;20057;-62
2024/01/01 12:46:39;;;;;;;9.18;1.75;;;;;;;;;;5046694;28;20053;-63
2024/01/01 12:49:05;;;;;;;9.15;1.90;;;;;;;;;;5042038;28;20061;-63
2024/01/01 12:51:32;;;;;;;9.75;1.38;;;;;;;;;;5038326;28;20048;-65
2024/01/01 12:54:02;;;;;;;6.68;1.70;;;;;;;;;;5026712;28;20130;-63
2024/01/01 12:56:28;;;;;;;5.47;1.85;;;;;;;;;;5050701;28;20050;-63
2024/01/01 12:58:57;;;;;;;4.50;1.40;;;;;;;;;;5048399;28;20060;-63
2024/01/01 13:01:24;;;;;;;13.20;1.60;;;;;;;;;;5047525;28;20061;-64
2024/01/01 13:03:51;;;;;;;6.93;1.20;;;;;;;;;;5040242;28;20122;-65
2024/01/01 13:06:21;;;;;;;1.58;0.43;;;;;;;;;;5049640;28;20052;-63
2024/01/01 13:08:49;;;;;;;5.43;1.10;;;;;;;;;;5034654;28;20060;-63
2024/01/01 13:11:18;;;;;;;7.95;1.48;;;;;;;;;;5045250;28;20073;-63
2024/01/01 13:13:49;;;;;;;;;;;;;;;;;;5011292;28;20053;-64
2024/01/01 13:16:15;;;;;;;5.55;1.70;;;;;;;;;;5030659;28;19985;-62
2024/01/01 13:18:42;;;;;;;10.88;1.95;;;;;;;;;;5052277;28;20165;-62
2024/01/01 13:21:09;;;;;;;5.10;1.23;;;;;;;;;;5050886;28;20120;-63
2024/01/01 13:23:40;;;;;;;5.38;1.25;;;;;;;;;;5034920;28;20118;-63
2024/01/01 13:26:07;;;;;;;5.25;1.17;;;;;;;;;;5031331;28;20139;-62
2024/01/01 13:28:35;;;;;;;12.25;1.42;;;;;;;;;;5050447;28;20052;-63
2024/01/01 13:31:02;;;;;;;7.85;1.40;;;;;;;;;;5047182;28;20049;-63
2024/01/01 13:33:29;;;;;;;13.27;2.88;;;;;;;;;;5035489;28;20106;-62
2024/01/01 13:35:56;;;;;;;2.63;0.73;;;;;;;;;;5026075;28;20064;-62
2024/01/01 13:38:23;;;;;;;4.60;1.40;;;;;;;;;;5046107;28;20051;-60
2024/01/01 13:40:49;;;;;;;8.20;1.02;;;;;;;;;;5045500;28;20111;-60
2024/01/01 13:43:18;;;;;;;8.63;0.95;;;;;;;;;;5038530;28;20092;-60
2024/01/01 13:45:49;;;;;;;12.40;1.85;;;;;;;;;;4996818;28;20052;-61
2024/01/01 13:48:16;;;;;;;4.60;1.08;;;;;;;;;;5025470;28;20052;-61
2024/01/01 13:50:44;;;;;;;4.82;1.42;;;;;;;;;;5034020;28;20125;-61
2024/01/01 13:53:12;;;;;;;2.58;1.08;;;;;;;;;;5026646;28;20068;-61
2024/01/01 13:55:38;;;;;;;2.53;0.85;;;;;;;;;;5029821;28;20064;-61
2024/01/01 13:58:06;;;;;;;3.70;1.40;;;;;;;;;;5035875;28;20175;-62
2024/01/01 14:00:36;;;;;;;2.95;0.77;;;;;;;;;;5048155;28;20138;-61
2024/01/01 14:03:04;;;;;;;3.33;0.90;;;;;;;;;;5051462;28;20103;-61
2024/01/01 14:05:34;;;;;;;8.15;1.00;;;;;;;;;;5024247;28;20106;-60
2024/01/01 14:08:01;;;;;;;7.75;1.17;;;;;;;;;;5045240;28;20059;-62
2024/01/01 14:10:28;;;;;;;7.35;1.67;;;;;;;;;;5033761;28;20205;-62
2024/01/01 14:12:55;;;;;;;7.47;1.00;;;;;;;;;;5038543;28;20045;-62
2024/01/01 14:15:23;;;;;;;11.10;1.98;;;;;;;;;;5012105;28;20072;-62
2024/01/01 14:17:52;;;;;;;8.65;1.70;;;;;;;;;;5050711;28;20067;-63
2024/01/01 14:20:20;;;;;;;11.20;1.20;;;;;;;;;;5038986;28;20143;-63
2024/01/01 14:22:47;;;;;;;;;;;;;;;;;;5055438;28;20053;-63
2024/01/01 14:25:14;;;;;;;7.35;1.60;;;;;;;;;;5049452;28;19964;-62
2024/01/01 14:27:42;;;;;;;10.00;1.40;;;;;;;;;;5039680;28;20119;-64
2024/01/01 14:30:11;;;;;;;13.23;1.52;;;;;;;;;;5043584;28;20049;-63
2024/01/01 14:32:38;;;;;;;14.23;2.38;;;;;;;;;;5058917;28;20059;-63
2024/01/01 14:35:07;;;;;;;11.55;1.75;;;;;;;;;;5033794;28;20049;-63
2024/01/01 14:37:35;;;;;;;;;;;;;;;;;;5051600;28;20085;-63
2024/01/01 14:40:07;;;;;;;7.05;1.15;;;;;;;;;;5047183;28;21021;-63
2024/01/01 14:42:34;;;;;;;5.63;1.73;;;;;;;;;;5048235;28;20048;-63
2024/01/01 14:45:01;;;;;;;9.95;1.88;;;;;;;;;;5037206;28;20048;-62
2024/01/01 14:47:27;;;;;;;3.25;1.00;;;;;;;;;;5041428;28;20063;-62
2024/01/01 14:49:54;;;;;;;6.38;0.93;;;;;;;;;;5056860;28;20048;-61